TimeEDT,TemperatureF,Dew PointF,Humidity,Sea Level PressureIn,VisibilityMPH,Wind Direction,Wind SpeedMPH,Gust SpeedMPH,PrecipitationIn,Events,Conditions,WindDirDegrees,DateUTC
12:53 AM,64.0,55.0,73,29.99,10.0,NE,4.6,-,N/A,,Clear,40,2013-09-27 04:53:00
1:53 AM,63.0,54.0,72,29.99,10.0,NNE,6.9,-,N/A,,Clear,30,2013-09-27 05:53:00
2:53 AM,63.0,54.0,72,29.99,10.0,NE,6.9,-,N/A,,Clear,40,2013-09-27 06:53:00
3:53 AM,62.1,54.0,75,29.99,10.0,NE,6.9,-,N/A,,Clear,40,2013-09-27 07:53:00
4:53 AM,61.0,55.0,81,30.01,10.0,NNE,8.1,-,N/A,,Clear,30,2013-09-27 08:53:00
5:53 AM,60.1,55.0,83,30.02,10.0,NE,6.9,-,N/A,,Clear,40,2013-09-27 09:53:00
6:53 AM,60.1,55.0,83,30.03,10.0,NNE,4.6,-,N/A,,Clear,20,2013-09-27 10:53:00
7:53 AM,61.0,55.0,81,30.06,10.0,NNE,5.8,-,N/A,,Clear,30,2013-09-27 11:53:00
8:53 AM,64.0,55.9,75,30.08,10.0,NE,9.2,-,N/A,,Clear,50,2013-09-27 12:53:00
9:53 AM,66.9,55.9,68,30.09,10.0,NNE,11.5,-,N/A,,Clear,30,2013-09-27 13:53:00
10:53 AM,71.1,57.9,63,30.11,10.0,NE,9.2,-,N/A,,Partly Cloudy,40,2013-09-27 14:53:00
11:53 AM,73.9,55.9,53,30.10,10.0,NE,13.8,20.7,N/A,,Partly Cloudy,50,2013-09-27 15:53:00
12:53 PM,75.0,55.0,50,30.09,10.0,ENE,11.5,18.4,N/A,,Clear,60,2013-09-27 16:53:00
1:53 PM,77.0,55.0,47,30.07,10.0,ENE,6.9,17.3,N/A,,Clear,70,2013-09-27 17:53:00
2:53 PM,78.1,55.0,45,30.05,10.0,ENE,12.7,18.4,N/A,,Clear,60,2013-09-27 18:53:00
3:53 PM,79.0,54.0,42,30.04,10.0,NNE,13.8,-,N/A,,Clear,20,2013-09-27 19:53:00
4:53 PM,79.0,54.0,42,30.05,10.0,NE,10.4,-,N/A,,Clear,40,2013-09-27 20:53:00
5:53 PM,77.0,53.1,43,30.06,10.0,NE,9.2,-,N/A,,Clear,50,2013-09-27 21:53:00
6:53 PM,73.9,54.0,50,30.07,10.0,NE,3.5,-,N/A,,Clear,50,2013-09-27 22:53:00
7:53 PM,69.1,55.9,63,30.08,10.0,NE,3.5,-,N/A,,Clear,40,2013-09-27 23:53:00
8:53 PM,66.0,55.9,70,30.10,10.0,NE,4.6,-,N/A,,Clear,50,2013-09-28 00:53:00
9:53 PM,64.0,55.9,75,30.12,10.0,NE,3.5,-,N/A,,Clear,50,2013-09-28 01:53:00
10:53 PM,63.0,55.0,75,30.13,10.0,NE,4.6,-,N/A,,Clear,50,2013-09-28 02:53:00
11:53 PM,62.1,55.0,78,30.14,10.0,NE,4.6,-,N/A,,Clear,50,2013-09-28 03:53:00